Time;durP1;ratioP1;P1;durP2;ratioP2;P2;SDS_P1;SDS_P2;PMS_P1;PMS_P2;Temp;Humidity;BMP_temperature;BMP_pressure;BME280_temperature;BME280_humidity;BME280_pressure;Samples;Min_cycle;Max_cycle;Signal;HPM_P1;HPM_P2
2023/04/15 00:01:55;;;;;;;4.07;2.80;;;;;;;;;;5099944;28;20247;-64
2023/04/15 00:04:23;;;;;;;3.67;3.03;;;;;;;;;;5100519;28;20285;-64
2023/04/15 00:06:52;;;;;;;6.30;3.03;;;;;;;;;;5100281;28;20604;-63
2023/04/15 00:09:20;;;;;;;3.70;3.30;;;;;;;;;;5100396;28;20256;-64
2023/04/15 00:11:50;;;;;;;3.77;3.03;;;;;;;;;;5100237;28;20205;-64
2023/04/15 00:14:18;;;;;;;3.23;2.90;;;;;;;;;;5100242;28;20201;-64
2023/04/15 00:16:46;;;;;;;4.60;3.10;;;;;;;;;;5099467;28;20269;-64
2023/04/15 00:19:15;;;;;;;7.53;3.60;;;;;;;;;;5099955;28;20729;-64
2023/04/15 00:21:43;;;;;;;3.23;2.93;;;;;;;;;;5100209;28;20202;-64
2023/04/15 00:24:11;;;;;;;3.83;3.47;;;;;;;;;;5100290;28;20241;-63
2023/04/15 00:26:39;;;;;;;4.17;3.40;;;;;;;;;;5099342;28;20213;-64
2023/04/15 00:29:07;;;;;;;4.87;3.60;;;;;;;;;;5099196;28;20672;-64
2023/04/15 00:31:36;;;;;;;3.20;3.00;;;;;;;;;;5099590;28;20213;-64
2023/04/15 00:34:04;;;;;;;7.40;3.23;;;;;;;;;;5090253;28;20685;-64
2023/04/15 00:36:34;;;;;;;3.97;3.57;;;;;;;;;;5079700;28;20245;-63
2023/04/15 00:39:02;;;;;;;4.67;4.00;;;;;;;;;;5081467;28;20206;-63
2023/04/15 00:41:30;;;;;;;3.37;3.10;;;;;;;;;;5096343;28;20212;-63
2023/04/15 00:43:59;;;;;;;4.70;3.50;;;;;;;;;;5099933;28;20209;-63
2023/04/15 00:46:28;;;;;;;3.93;3.43;;;;;;;;;;5099080;28;20614;-63
2023/04/15 00:48:56;;;;;;;3.90;3.47;;;;;;;;;;5098407;28;20582;-63
2023/04/15 00:51:24;;;;;;;4.80;3.80;;;;;;;;;;5098109;28;20197;-63
2023/04/15 00:53:54;;;;;;;4.43;3.73;;;;;;;;;;5097765;28;20741;-63
2023/04/15 00:56:23;;;;;;;4.30;3.90;;;;;;;;;;5097279;28;20285;-63
2023/04/15 00:58:51;;;;;;;5.47;3.57;;;;;;;;;;5096228;28;20198;-63
2023/04/15 01:01:20;;;;;;;4.40;3.80;;;;;;;;;;5097551;28;20651;-63
2023/04/15 01:03:49;;;;;;;5.13;4.43;;;;;;;;;;5098834;28;20206;-63
2023/04/15 01:06:18;;;;;;;8.93;4.00;;;;;;;;;;5097501;28;20208;-62
2023/04/15 01:08:46;;;;;;;3.70;3.40;;;;;;;;;;5097108;28;20209;-63
2023/04/15 01:11:16;;;;;;;6.17;3.87;;;;;;;;;;5099047;28;20225;-63
2023/04/15 01:13:45;;;;;;;4.13;3.73;;;;;;;;;;5098153;28;20202;-63
2023/04/15 01:16:13;;;;;;;5.23;3.80;;;;;;;;;;5095032;28;20237;-63
2023/04/15 01:18:41;;;;;;;5.50;3.70;;;;;;;;;;5099123;28;20221;-63
2023/04/15 01:21:10;;;;;;;6.30;3.77;;;;;;;;;;5098870;28;20229;-62
2023/04/15 01:23:39;;;;;;;6.03;3.97;;;;;;;;;;5099025;28;20240;-63
2023/04/15 01:26:08;;;;;;;4.87;4.00;;;;;;;;;;5099415;28;20202;-63
2023/04/15 01:28:37;;;;;;;5.50;3.97;;;;;;;;;;5099083;28;20209;-63
2023/04/15 01:31:06;;;;;;;5.33;3.87;;;;;;;;;;5099052;28;20229;-63
2023/04/15 01:33:34;;;;;;;5.87;3.90;;;;;;;;;;5099183;28;20229;-63
2023/04/15 01:36:02;;;;;;;6.37;4.40;;;;;;;;;;5099320;28;20216;-63
2023/04/15 01:38:31;;;;;;;5.00;3.67;;;;;;;;;;5098836;28;20758;-63
2023/04/15 01:40:59;;;;;;;5.60;3.63;;;;;;;;;;5094787;28;20266;-63
2023/04/15 01:43:28;;;;;;;8.10;3.93;;;;;;;;;;5099032;28;20229;-63
2023/04/15 01:45:56;;;;;;;5.07;3.70;;;;;;;;;;5099247;28;20205;-63
2023/04/15 01:48:24;;;;;;;4.97;2.90;;;;;;;;;;5099690;28;20206;-63
2023/04/15 01:50:53;;;;;;;3.40;3.10;;;;;;;;;;5098677;28;20263;-62
2023/04/15 01:53:21;;;;;;;3.33;3.03;;;;;;;;;;5095977;28;20193;-63
2023/04/15 01:55:49;;;;;;;2.83;2.63;;;;;;;;;;5097163;28;20264;-63
2023/04/15 01:58:17;;;;;;;3.07;2.33;;;;;;;;;;5094640;28;20221;-63
2023/04/15 02:00:46;;;;;;;2.77;2.33;;;;;;;;;;5095576;28;20257;-63
2023/04/15 02:03:15;;;;;;;2.10;2.00;;;;;;;;;;5096838;28;20205;-63
2023/04/15 02:05:43;;;;;;;2.57;2.37;;;;;;;;;;5093779;28;20749;-63
2023/04/15 02:08:12;;;;;;;2.47;2.10;;;;;;;;;;5096007;28;20194;-63
2023/04/15 02:10:40;;;;;;;3.87;1.97;;;;;;;;;;5095269;28;20321;-63
2023/04/15 02:13:08;;;;;;;1.70;1.60;;;;;;;;;;5097067;28;20240;-63
2023/04/15 02:15:36;;;;;;;4.50;2.13;;;;;;;;;;5093884;28;20225;-62
2023/04/15 02:18:10;;;;;;;4.47;2.00;;;;;;;;;;5096436;28;20257;-63
2023/04/15 02:20:38;;;;;;;2.07;1.80;;;;;;;;;;5094992;28;20253;-63
2023/04/15 02:23:07;;;;;;;2.80;1.70;;;;;;;;;;5096020;28;20201;-63
2023/04/15 02:25:36;;;;;;;4.20;2.20;;;;;;;;;;5094288;28;20205;-63
2023/04/15 02:28:04;;;;;;;4.50;2.03;;;;;;;;;;5095069;28;20284;-63
2023/04/15 02:30:32;;;;;;;2.30;1.37;;;;;;;;;;5098168;28;20226;-63
2023/04/15 02:33:00;;;;;;;83.03;48.80;;;;;;;;;;5096994;28;20212;-63
2023/04/15 02:35:30;;;;;;;8.53;5.40;;;;;;;;;;5097887;28;20210;-63
2023/04/15 02:38:02;;;;;;;2.10;1.60;;;;;;;;;;5097762;28;20228;-62
2023/04/15 02:40:29;;;;;;;2.90;1.90;;;;;;;;;;5097055;28;20568;-63
2023/04/15 02:42:59;;;;;;;1.73;1.30;;;;;;;;;;5095362;28;20219;-62
2023/04/15 02:45:27;;;;;;;2.60;1.60;;;;;;;;;;5097856;28;20244;-62
2023/04/15 02:47:55;;;;;;;1.87;1.27;;;;;;;;;;5097429;28;20228;-62
2023/04/15 02:50:24;;;;;;;2.20;1.37;;;;;;;;;;5097581;28;20745;-63
2023/04/15 02:52:53;;;;;;;1.60;1.50;;;;;;;;;;5097693;28;20327;-63
2023/04/15 02:55:21;;;;;;;2.73;1.50;;;;;;;;;;5097804;28;20240;-63
2023/04/15 02:57:49;;;;;;;1.30;1.20;;;;;;;;;;5097682;28;20221;-63
2023/04/15 03:00:17;;;;;;;1.57;1.23;;;;;;;;;;5097674;28;20222;-63
2023/04/15 03:02:46;;;;;;;1.10;1.10;;;;;;;;;;5097437;28;20212;-62
2023/04/15 03:05:15;;;;;;;2.23;1.63;;;;;;;;;;5097352;28;20205;-63
2023/04/15 03:07:43;;;;;;;2.03;1.30;;;;;;;;;;5097780;28;20231;-62
2023/04/15 03:10:12;;;;;;;3.63;1.60;;;;;;;;;;5097526;28;20226;-63
2023/04/15 03:12:40;;;;;;;1.50;1.37;;;;;;;;;;5097468;28;20213;-63
2023/04/15 03:15:09;;;;;;;1.37;1.30;;;;;;;;;;5097163;28;20773;-62
2023/04/15 03:17:37;;;;;;;1.43;1.33;;;;;;;;;;5098771;28;20243;-62
2023/04/15 03:20:06;;;;;;;2.33;1.53;;;;;;;;;;5101064;28;20221;-63
2023/04/15 03:22:34;;;;;;;1.50;1.40;;;;;;;;;;5101270;28;20240;-62
2023/04/15 03:25:02;;;;;;;1.63;1.43;;;;;;;;;;5101287;28;20205;-63
2023/04/15 03:27:34;;;;;;;3.33;1.40;;;;;;;;;;5101343;28;20244;-63
2023/04/15 03:30:04;;;;;;;2.23;1.40;;;;;;;;;;5100904;28;20588;-63
2023/04/15 03:32:32;;;;;;;4.50;1.73;;;;;;;;;;5100813;28;20205;-62
2023/04/15 03:35:00;;;;;;;4.30;1.80;;;;;;;;;;5101102;28;20258;-62
2023/04/15 03:37:29;;;;;;;2.30;1.60;;;;;;;;;;5101088;28;20211;-62
2023/04/15 03:39:58;;;;;;;3.87;1.77;;;;;;;;;;5100569;28;20308;-62
2023/04/15 03:42:25;;;;;;;1.87;1.50;;;;;;;;;;5096809;28;20209;-63
2023/04/15 03:44:55;;;;;;;4.00;1.60;;;;;;;;;;5100952;28;20210;-63
2023/04/15 03:47:23;;;;;;;3.53;2.00;;;;;;;;;;5100318;28;20206;-62
2023/04/15 03:49:51;;;;;;;3.93;1.60;;;;;;;;;;5100634;28;20692;-63
2023/04/15 03:52:19;;;;;;;2.47;2.03;;;;;;;;;;5100867;28;20206;-62
2023/04/15 03:54:47;;;;;;;2.37;1.70;;;;;;;;;;5100523;28;20205;-63
2023/04/15 03:57:15;;;;;;;3.83;1.97;;;;;;;;;;5100377;28;20297;-62
2023/04/15 03:59:43;;;;;;;2.17;1.90;;;;;;;;;;5100546;28;20229;-63
2023/04/15 04:02:12;;;;;;;3.23;1.67;;;;;;;;;;5100017;28;20233;-62
2023/04/15 04:04:40;;;;;;;2.50;2.00;;;;;;;;;;5100513;28;20198;-63
2023/04/15 04:07:08;;;;;;;2.50;1.90;;;;;;;;;;5100169;28;20288;-63
2023/04/15 04:09:38;;;;;;;2.83;1.90;;;;;;;;;;5100546;28;20232;-63
2023/04/15 04:12:06;;;;;;;1.90;1.80;;;;;;;;;;5100177;28;20206;-63
2023/04/15 04:14:34;;;;;;;2.27;1.83;;;;;;;;;;5100046;28;20232;-63
2023/04/15 04:17:02;;;;;;;2.57;1.97;;;;;;;;;;5099891;28;20202;-62
2023/04/15 04:19:33;;;;;;;3.43;2.00;;;;;;;;;;5100200;28;20316;-62
2023/04/15 04:22:01;;;;;;;3.00;2.17;;;;;;;;;;5100257;28;20205;-62
2023/04/15 04:24:29;;;;;;;4.20;2.53;;;;;;;;;;5099983;28;20225;-63
2023/04/15 04:26:57;;;;;;;2.90;2.60;;;;;;;;;;5099911;28;20252;-62
2023/04/15 04:29:25;;;;;;;4.73;2.60;;;;;;;;;;5099512;28;20227;-63
2023/04/15 04:31:52;;;;;;;3.57;2.80;;;;;;;;;;5099802;28;20217;-62
2023/04/15 04:34:20;;;;;;;2.97;2.50;;;;;;;;;;5099796;28;20669;-63
2023/04/15 04:36:50;;;;;;;5.83;3.23;;;;;;;;;;5099987;28;20288;-62
2023/04/15 04:39:18;;;;;;;5.20;3.37;;;;;;;;;;5099502;28;20754;-62
2023/04/15 04:41:46;;;;;;;4.77;3.80;;;;;;;;;;5086193;28;20213;-63
2023/04/15 04:44:14;;;;;;;7.23;3.93;;;;;;;;;;5099561;28;20688;-63
2023/04/15 04:46:42;;;;;;;4.80;3.97;;;;;;;;;;5099551;28;20212;-62
2023/04/15 04:49:10;;;;;;;5.90;3.93;;;;;;;;;;5099437;28;20673;-62
2023/04/15 04:51:38;;;;;;;9.70;4.00;;;;;;;;;;5099526;28;20745;-62
2023/04/15 04:54:07;;;;;;;5.17;3.63;;;;;;;;;;5099747;28;20209;-62
2023/04/15 04:56:37;;;;;;;6.07;4.23;;;;;;;;;;5099701;28;20232;-62
2023/04/15 04:59:05;;;;;;;5.43;3.90;;;;;;;;;;5099368;28;20221;-62
2023/04/15 05:01:33;;;;;;;6.77;3.83;;;;;;;;;;5098872;28;20680;-62
2023/04/15 05:04:03;;;;;;;5.77;4.40;;;;;;;;;;5099164;28;20665;-62
2023/04/15 05:06:32;;;;;;;5.63;3.97;;;;;;;;;;5099507;28;20208;-62
2023/04/15 05:09:00;;;;;;;5.63;3.60;;;;;;;;;;5099146;28;20206;-62
2023/04/15 05:11:29;;;;;;;3.13;2.93;;;;;;;;;;5099356;28;20205;-62
2023/04/15 05:13:58;;;;;;;3.93;2.87;;;;;;;;;;5099228;28;20212;-61
2023/04/15 05:16:26;;;;;;;4.27;2.97;;;;;;;;;;5098625;28;20265;-62
2023/04/15 05:18:54;;;;;;;4.37;3.10;;;;;;;;;;5098863;28;20236;-62
2023/04/15 05:21:22;;;;;;;5.00;2.60;;;;;;;;;;5099193;28;20229;-62
2023/04/15 05:23:50;;;;;;;4.10;3.07;;;;;;;;;;5099040;28;20217;-62
2023/04/15 05:26:18;;;;;;;3.37;2.50;;;;;;;;;;5098989;28;20269;-62
2023/04/15 05:28:48;;;;;;;4.13;2.70;;;;;;;;;;5099001;28;20212;-62
2023/04/15 05:31:16;;;;;;;3.73;2.43;;;;;;;;;;5098258;28;20626;-63
2023/04/15 05:33:44;;;;;;;3.27;1.63;;;;;;;;;;5099638;28;20258;-62
2023/04/15 05:36:12;;;;;;;0.93;0.80;;;;;;;;;;5089222;28;20233;-62
2023/04/15 05:38:40;;;;;;;1.40;1.00;;;;;;;;;;5086822;28;20197;-62
2023/04/15 05:41:09;;;;;;;0.80;0.80;;;;;;;;;;5087727;28;20225;-63
2023/04/15 05:43:37;;;;;;;0.97;0.77;;;;;;;;;;5087624;28;20201;-62
2023/04/15 05:46:07;;;;;;;0.63;0.63;;;;;;;;;;5088426;28;20705;-62
2023/04/15 05:48:35;;;;;;;1.70;0.60;;;;;;;;;;5087579;28;20202;-62
2023/04/15 05:51:03;;;;;;;2.10;0.70;;;;;;;;;;5101697;28;20282;-63
2023/04/15 05:53:31;;;;;;;0.60;0.43;;;;;;;;;;5104219;28;20225;-62
2023/04/15 05:55:59;;;;;;;0.40;0.40;;;;;;;;;;5108003;28;20292;-62
2023/04/15 05:58:27;;;;;;;2.03;0.50;;;;;;;;;;5107657;28;20576;-62
2023/04/15 06:00:55;;;;;;;0.63;0.63;;;;;;;;;;5104335;28;20319;-62
2023/04/15 06:03:25;;;;;;;2.33;0.63;;;;;;;;;;5105376;28;20254;-62
2023/04/15 06:05:53;;;;;;;1.20;0.40;;;;;;;;;;5105123;28;20676;-63
2023/04/15 06:08:21;;;;;;;0.80;0.50;;;;;;;;;;5104193;28;20375;-62
2023/04/15 06:10:49;;;;;;;0.87;0.67;;;;;;;;;;5107569;28;20249;-62
2023/04/15 06:13:17;;;;;;;0.60;0.60;;;;;;;;;;5107888;28;20208;-62
2023/04/15 06:15:45;;;;;;;1.07;0.50;;;;;;;;;;5104068;28;20258;-62
2023/04/15 06:18:13;;;;;;;0.40;0.40;;;;;;;;;;5103437;28;20225;-62
2023/04/15 06:20:42;;;;;;;0.90;0.90;;;;;;;;;;5105991;28;20257;-62
2023/04/15 06:23:10;;;;;;;0.90;0.90;;;;;;;;;;5104800;28;20644;-62
2023/04/15 06:25:38;;;;;;;1.10;1.00;;;;;;;;;;5105835;28;20233;-62
2023/04/15 06:28:06;;;;;;;1.00;1.00;;;;;;;;;;5100963;28;20259;-62
2023/04/15 06:30:34;;;;;;;2.03;1.90;;;;;;;;;;5096121;28;20221;-62
2023/04/15 06:33:04;;;;;;;1.30;1.20;;;;;;;;;;5097819;28;20231;-61
2023/04/15 06:35:32;;;;;;;0.93;0.90;;;;;;;;;;5096886;28;20581;-61
2023/04/15 06:38:01;;;;;;;4.23;1.00;;;;;;;;;;5097346;28;20221;-61
2023/04/15 06:40:30;;;;;;;0.83;0.83;;;;;;;;;;5094091;28;20267;-61
2023/04/15 06:42:58;;;;;;;1.60;1.10;;;;;;;;;;5088105;28;20579;-61
2023/04/15 06:45:26;;;;;;;0.97;0.97;;;;;;;;;;5097186;28;20205;-61
2023/04/15 06:47:54;;;;;;;3.40;1.00;;;;;;;;;;5093936;28;20229;-61
2023/04/15 06:50:22;;;;;;;1.07;0.80;;;;;;;;;;5096959;28;20223;-61
2023/04/15 06:52:50;;;;;;;2.37;1.20;;;;;;;;;;5101021;28;20427;-61
2023/04/15 06:55:19;;;;;;;1.57;0.80;;;;;;;;;;5101001;28;20255;-61
2023/04/15 06:57:47;;;;;;;0.83;0.80;;;;;;;;;;5101010;28;20212;-61
2023/04/15 07:00:16;;;;;;;0.67;0.50;;;;;;;;;;5101220;28;20221;-62
2023/04/15 07:02:45;;;;;;;1.33;0.53;;;;;;;;;;5100626;28;20292;-63
2023/04/15 07:05:13;;;;;;;0.70;0.70;;;;;;;;;;5094858;28;20205;-62
2023/04/15 07:07:41;;;;;;;1.70;0.60;;;;;;;;;;5101016;28;20209;-63
2023/04/15 07:10:10;;;;;;;2.73;1.00;;;;;;;;;;5100820;28;20388;-63
2023/04/15 07:12:40;;;;;;;0.70;0.60;;;;;;;;;;5101071;28;20208;-63
2023/04/15 07:15:08;;;;;;;1.80;1.50;;;;;;;;;;5100585;28;20763;-62
2023/04/15 07:17:37;;;;;;;1.57;0.60;;;;;;;;;;5100300;28;20240;-62
2023/04/15 07:20:07;;;;;;;0.60;0.50;;;;;;;;;;5100563;28;20222;-62
2023/04/15 07:22:38;;;;;;;0.73;0.73;;;;;;;;;;5100007;28;20202;-61
2023/04/15 07:25:07;;;;;;;0.93;0.50;;;;;;;;;;5099782;28;20232;-62
2023/04/15 07:27:35;;;;;;;1.23;0.60;;;;;;;;;;5093159;28;20253;-64
2023/04/15 07:30:04;;;;;;;2.70;0.70;;;;;;;;;;5101101;28;20275;-64
2023/04/15 07:32:32;;;;;;;0.53;0.53;;;;;;;;;;5092730;28;20198;-64
2023/04/15 07:35:02;;;;;;;1.27;0.50;;;;;;;;;;5096279;28;20707;-64
2023/04/15 07:37:30;;;;;;;1.00;0.43;;;;;;;;;;5107712;28;20198;-64
2023/04/15 07:39:58;;;;;;;0.60;0.60;;;;;;;;;;5102015;28;20252;-64
2023/04/15 07:42:26;;;;;;;0.57;0.50;;;;;;;;;;5107261;28;20229;-64
2023/04/15 07:44:54;;;;;;;0.70;0.70;;;;;;;;;;5109494;28;20592;-64
2023/04/15 07:47:23;;;;;;;0.50;0.50;;;;;;;;;;5105569;28;20322;-65
2023/04/15 07:49:51;;;;;;;0.93;0.50;;;;;;;;;;5101916;28;20246;-64
2023/04/15 07:52:19;;;;;;;0.30;0.30;;;;;;;;;;5101803;28;20195;-64
2023/04/15 07:54:47;;;;;;;0.40;0.40;;;;;;;;;;5107448;28;20198;-64
2023/04/15 07:57:15;;;;;;;1.10;0.50;;;;;;;;;;5109943;28;20668;-64
2023/04/15 07:59:43;;;;;;;0.80;0.50;;;;;;;;;;5109190;28;20212;-64
2023/04/15 08:02:12;;;;;;;0.60;0.60;;;;;;;;;;5106848;28;20307;-64
2023/04/15 08:04:41;;;;;;;0.53;0.53;;;;;;;;;;5106313;28;20201;-63
2023/04/15 08:07:10;;;;;;;0.33;0.33;;;;;;;;;;5106953;28;20197;-64
2023/04/15 08:09:38;;;;;;;0.33;0.33;;;;;;;;;;5109634;28;20301;-64
2023/04/15 08:12:08;;;;;;;1.37;0.50;;;;;;;;;;5107984;28;20199;-64
2023/04/15 08:14:36;;;;;;;1.27;0.70;;;;;;;;;;5108873;28;20213;-64
2023/04/15 08:17:04;;;;;;;0.50;0.50;;;;;;;;;;5104387;28;20255;-64
2023/04/15 08:19:33;;;;;;;0.93;0.60;;;;;;;;;;5106021;28;20304;-64
2023/04/15 08:22:05;;;;;;;1.10;0.40;;;;;;;;;;5110627;28;20221;-64
2023/04/15 08:24:42;;;;;;;1.00;0.50;;;;;;;;;;5102585;28;20206;-64
2023/04/15 08:27:10;;;;;;;1.40;0.70;;;;;;;;;;5088272;28;20244;-64
2023/04/15 08:29:38;;;;;;;3.70;0.83;;;;;;;;;;5090077;28;20221;-64
2023/04/15 08:32:06;;;;;;;0.60;0.60;;;;;;;;;;5089179;28;20209;-64
2023/04/15 08:34:35;;;;;;;0.60;0.60;;;;;;;;;;5086878;28;20285;-65
2023/04/15 08:37:04;;;;;;;1.50;1.20;;;;;;;;;;5088997;28;20228;-64
2023/04/15 08:39:32;;;;;;;0.50;0.50;;;;;;;;;;5090844;28;20257;-64
2023/04/15 08:42:01;;;;;;;0.53;0.53;;;;;;;;;;5094735;28;20307;-64
2023/04/15 08:44:29;;;;;;;2.17;0.70;;;;;;;;;;5106647;28;20196;-64
2023/04/15 08:47:01;;;;;;;0.70;0.70;;;;;;;;;;5105975;28;20656;-64
2023/04/15 08:49:29;;;;;;;0.40;0.40;;;;;;;;;;5103500;28;20220;-64
2023/04/15 08:51:58;;;;;;;0.93;0.63;;;;;;;;;;5109244;28;20668;-63
2023/04/15 08:54:28;;;;;;;2.40;0.70;;;;;;;;;;5104221;28;20210;-64
2023/04/15 08:56:58;;;;;;;0.60;0.60;;;;;;;;;;5096023;28;20241;-64
2023/04/15 08:59:26;;;;;;;1.03;0.70;;;;;;;;;;5099431;28;20312;-64
2023/04/15 09:01:55;;;;;;;0.67;0.67;;;;;;;;;;5099016;28;20237;-64
2023/04/15 09:04:23;;;;;;;0.40;0.40;;;;;;;;;;5099426;28;20215;-64
2023/04/15 09:06:52;;;;;;;0.70;0.70;;;;;;;;;;5099076;28;20214;-64
2023/04/15 09:09:20;;;;;;;1.50;0.67;;;;;;;;;;5095959;28;20222;-64
2023/04/15 09:11:50;;;;;;;0.50;0.50;;;;;;;;;;5104426;28;20277;-64
2023/04/15 09:14:18;;;;;;;0.80;0.80;;;;;;;;;;5106085;28;20703;-63
2023/04/15 09:16:59;;;;;;;1.03;0.90;;;;;;;;;;5105561;28;20315;-63
2023/04/15 09:19:27;;;;;;;0.87;0.70;;;;;;;;;;5104045;28;20247;-63
2023/04/15 09:21:56;;;;;;;1.13;0.90;;;;;;;;;;5104777;28;20233;-63
2023/04/15 09:24:27;;;;;;;0.60;0.40;;;;;;;;;;5109313;28;20208;-64
2023/04/15 09:26:58;;;;;;;2.30;0.70;;;;;;;;;;5096562;28;20893;-65
2023/04/15 09:29:26;;;;;;;0.60;0.60;;;;;;;;;;5098948;28;20316;-64
2023/04/15 09:31:54;;;;;;;0.97;0.40;;;;;;;;;;5094596;28;20218;-64
2023/04/15 09:34:35;;;;;;;0.40;0.40;;;;;;;;;;5078676;28;20209;-65
2023/04/15 09:37:03;;;;;;;1.63;1.27;;;;;;;;;;5078471;28;20240;-64
2023/04/15 09:39:45;;;;;;;0.40;0.40;;;;;;;;;;5083361;28;20765;-63
2023/04/15 09:42:16;;;;;;;0.50;0.50;;;;;;;;;;5092551;28;20213;-64
2023/04/15 09:44:44;;;;;;;0.93;0.80;;;;;;;;;;5099255;28;20212;-64
2023/04/15 09:47:26;;;;;;;1.07;0.80;;;;;;;;;;5108026;28;20275;-64
2023/04/15 09:49:58;;;;;;;0.83;0.70;;;;;;;;;;5097706;28;20251;-65
2023/04/15 09:52:27;;;;;;;0.83;0.40;;;;;;;;;;5098504;28;20205;-65
2023/04/15 09:54:57;;;;;;;0.57;0.57;;;;;;;;;;5098222;28;20217;-65
2023/04/15 09:57:33;;;;;;;0.50;0.50;;;;;;;;;;5098079;28;20231;-65
2023/04/15 10:00:01;;;;;;;0.43;0.43;;;;;;;;;;5098185;28;20248;-65
2023/04/15 10:02:30;;;;;;;0.40;0.40;;;;;;;;;;5097936;28;20253;-65
2023/04/15 10:04:58;;;;;;;0.50;0.33;;;;;;;;;;5098180;28;20590;-65
2023/04/15 10:07:26;;;;;;;4.77;3.50;;;;;;;;;;5098285;28;20288;-65
2023/04/15 10:09:54;;;;;;;0.93;0.50;;;;;;;;;;5098021;28;20244;-65
2023/04/15 10:12:22;;;;;;;0.50;0.50;;;;;;;;;;5098256;28;20205;-65
2023/04/15 10:14:53;;;;;;;1.03;0.40;;;;;;;;;;5097865;28;20229;-65
2023/04/15 10:17:22;;;;;;;0.50;0.50;;;;;;;;;;5097653;28;20241;-65
2023/04/15 10:19:53;;;;;;;0.83;0.53;;;;;;;;;;5097864;28;20222;-65
2023/04/15 10:22:22;;;;;;;0.50;0.50;;;;;;;;;;5097915;28;20268;-65
2023/04/15 10:24:50;;;;;;;1.87;0.60;;;;;;;;;;5098141;28;20208;-65
2023/04/15 10:27:19;;;;;;;0.40;0.40;;;;;;;;;;5097475;28;20672;-65
2023/04/15 10:29:47;;;;;;;0.67;0.50;;;;;;;;;;5097851;28;20226;-65
2023/04/15 10:32:18;;;;;;;0.37;0.37;;;;;;;;;;5097616;28;20197;-65
2023/04/15 10:34:46;;;;;;;0.40;0.40;;;;;;;;;;5098196;28;20205;-65
2023/04/15 10:37:20;;;;;;;0.40;0.40;;;;;;;;;;5097944;28;20205;-65
2023/04/15 10:39:49;;;;;;;0.40;0.40;;;;;;;;;;5097644;28;20214;-65
2023/04/15 10:42:19;;;;;;;1.67;0.40;;;;;;;;;;5097778;28;20225;-65
2023/04/15 10:44:50;;;;;;;1.17;0.67;;;;;;;;;;5097905;28;20209;-65
2023/04/15 10:47:20;;;;;;;0.40;0.40;;;;;;;;;;5097542;28;20243;-65
2023/04/15 10:49:49;;;;;;;0.50;0.50;;;;;;;;;;5097563;28;20272;-65
2023/04/15 10:52:18;;;;;;;0.50;0.50;;;;;;;;;;5097636;28;20572;-65
2023/04/15 10:54:46;;;;;;;1.13;0.50;;;;;;;;;;5097605;28;20209;-65
2023/04/15 10:57:15;;;;;;;1.00;0.50;;;;;;;;;;5097535;28;20270;-65
2023/04/15 10:59:58;;;;;;;0.73;0.57;;;;;;;;;;5097749;28;20229;-65
2023/04/15 11:02:39;;;;;;;0.60;0.60;;;;;;;;;;5084849;28;20221;-65
2023/04/15 11:05:08;;;;;;;0.73;0.50;;;;;;;;;;5097826;28;20211;-64
2023/04/15 11:07:38;;;;;;;0.40;0.40;;;;;;;;;;5098497;28;20244;-65
2023/04/15 11:10:20;;;;;;;0.93;0.70;;;;;;;;;;5102923;28;20225;-65
2023/04/15 11:12:51;;;;;;;0.93;0.40;;;;;;;;;;5086097;28;20189;-65
2023/04/15 11:15:27;;;;;;;1.27;0.50;;;;;;;;;;5087462;28;20735;-65
2023/04/15 11:17:57;;;;;;;1.47;0.67;;;;;;;;;;5085284;28;20202;-64
2023/04/15 11:20:25;;;;;;;0.53;0.40;;;;;;;;;;5085523;28;20313;-63
2023/04/15 11:22:54;;;;;;;0.70;0.70;;;;;;;;;;5087384;28;20218;-64
2023/04/15 11:25:41;;;;;;;1.17;0.40;;;;;;;;;;5084476;28;20250;-65
2023/04/15 11:28:10;;;;;;;0.40;0.40;;;;;;;;;;5086688;28;20574;-65
2023/04/15 11:30:39;;;;;;;0.40;0.40;;;;;;;;;;5081534;28;20301;-65
2023/04/15 11:33:10;;;;;;;0.40;0.40;;;;;;;;;;5085439;28;20240;-65
2023/04/15 11:35:40;;;;;;;0.40;0.40;;;;;;;;;;5085466;28;20194;-65
2023/04/15 11:38:09;;;;;;;0.40;0.40;;;;;;;;;;5086329;28;20256;-65
2023/04/15 11:40:37;;;;;;;0.83;0.50;;;;;;;;;;5087956;28;20252;-64
2023/04/15 11:43:06;;;;;;;0.83;0.50;;;;;;;;;;5088383;28;20221;-65
2023/04/15 11:45:34;;;;;;;0.87;0.40;;;;;;;;;;5090759;28;20235;-64
2023/04/15 11:48:08;;;;;;;0.73;0.50;;;;;;;;;;5092844;28;20254;-64
2023/04/15 11:50:36;;;;;;;1.47;0.90;;;;;;;;;;5109014;28;20303;-65
2023/04/15 11:53:05;;;;;;;0.30;0.30;;;;;;;;;;5107904;28;20621;-65
2023/04/15 11:55:42;;;;;;;0.30;0.30;;;;;;;;;;5089452;28;20240;-64
2023/04/15 11:58:10;;;;;;;0.37;0.37;;;;;;;;;;5100708;28;20253;-64
2023/04/15 12:00:40;;;;;;;0.63;0.30;;;;;;;;;;5083951;28;20260;-64
2023/04/15 12:03:13;;;;;;;0.40;0.40;;;;;;;;;;5091852;28;20221;-64
2023/04/15 12:06:00;;;;;;;0.47;0.30;;;;;;;;;;5100360;28;20209;-64
2023/04/15 12:08:47;;;;;;;1.37;0.30;;;;;;;;;;5100476;28;20288;-64
2023/04/15 12:11:16;;;;;;;0.30;0.30;;;;;;;;;;5092536;28;20716;-64
2023/04/15 12:13:44;;;;;;;0.53;0.43;;;;;;;;;;5100103;28;20215;-65
2023/04/15 12:16:12;;;;;;;0.30;0.30;;;;;;;;;;5099890;28;20242;-65
2023/04/15 12:18:41;;;;;;;0.30;0.30;;;;;;;;;;5100086;28;20248;-64
2023/04/15 12:21:10;;;;;;;0.50;0.50;;;;;;;;;;5100057;28;20229;-64
2023/04/15 12:23:38;;;;;;;0.47;0.47;;;;;;;;;;5088176;28;20272;-64
2023/04/15 12:26:07;;;;;;;0.43;0.43;;;;;;;;;;5089294;28;20213;-64
2023/04/15 12:28:35;;;;;;;0.30;0.30;;;;;;;;;;5096135;28;20202;-64
2023/04/15 12:31:07;;;;;;;0.40;0.40;;;;;;;;;;5099081;28;20230;-64
2023/04/15 12:33:37;;;;;;;0.40;0.40;;;;;;;;;;5097587;28;20667;-64
2023/04/15 12:36:08;;;;;;;0.30;0.30;;;;;;;;;;5099695;28;20206;-64
2023/04/15 12:38:39;;;;;;;0.40;0.40;;;;;;;;;;5099502;28;20240;-66
2023/04/15 12:41:07;;;;;;;1.53;0.53;;;;;;;;;;5091514;28;20250;-65
2023/04/15 12:43:37;;;;;;;1.27;0.40;;;;;;;;;;5097262;28;20284;-65
2023/04/15 12:46:07;;;;;;;0.40;0.40;;;;;;;;;;5099570;28;20212;-65
2023/04/15 12:48:38;;;;;;;0.50;0.50;;;;;;;;;;5099172;28;20244;-65
2023/04/15 12:51:07;;;;;;;0.23;0.23;;;;;;;;;;5093112;28;20321;-65
2023/04/15 12:53:38;;;;;;;0.40;0.40;;;;;;;;;;5099476;28;20202;-64
2023/04/15 12:56:06;;;;;;;0.70;0.50;;;;;;;;;;5099172;28;20208;-64
2023/04/15 12:58:36;;;;;;;0.50;0.50;;;;;;;;;;5098973;28;20635;-65
2023/04/15 13:01:07;;;;;;;1.80;1.47;;;;;;;;;;5097229;28;20217;-65
2023/04/15 13:03:38;;;;;;;2.13;0.77;;;;;;;;;;5078655;28;20218;-64
2023/04/15 13:06:08;;;;;;;0.90;0.83;;;;;;;;;;5081072;28;20267;-65
2023/04/15 13:08:36;;;;;;;0.77;0.43;;;;;;;;;;5101797;28;20221;-66
2023/04/15 13:11:09;;;;;;;0.60;0.60;;;;;;;;;;5104929;28;20309;-65
2023/04/15 13:13:37;;;;;;;0.83;0.70;;;;;;;;;;5102281;28;20190;-65
2023/04/15 13:16:05;;;;;;;0.40;0.40;;;;;;;;;;5104137;28;20239;-65
2023/04/15 13:18:33;;;;;;;1.50;0.60;;;;;;;;;;5107149;28;20600;-65
2023/04/15 13:21:02;;;;;;;0.40;0.40;;;;;;;;;;5106255;28;20553;-65
2023/04/15 13:23:33;;;;;;;1.53;0.50;;;;;;;;;;5107790;28;20279;-64
2023/04/15 13:26:01;;;;;;;0.50;0.50;;;;;;;;;;5103651;28;20203;-64
2023/04/15 13:28:29;;;;;;;0.53;0.53;;;;;;;;;;5105244;28;20205;-65
2023/04/15 13:30:57;;;;;;;0.50;0.50;;;;;;;;;;5101943;28;20705;-65
2023/04/15 13:33:25;;;;;;;0.40;0.40;;;;;;;;;;5108378;28;20668;-65
2023/04/15 13:35:53;;;;;;;0.87;0.60;;;;;;;;;;5104561;28;20313;-65
2023/04/15 13:38:21;;;;;;;0.73;0.73;;;;;;;;;;5101863;28;20202;-66
2023/04/15 13:40:50;;;;;;;0.40;0.40;;;;;;;;;;5098661;28;20230;-66
2023/04/15 13:43:18;;;;;;;0.43;0.43;;;;;;;;;;5099073;28;20198;-66
2023/04/15 13:45:46;;;;;;;0.30;0.30;;;;;;;;;;5077854;28;20224;-65
2023/04/15 13:48:14;;;;;;;0.67;0.60;;;;;;;;;;5078180;28;20212;-65
2023/04/15 13:50:44;;;;;;;0.63;0.63;;;;;;;;;;5077975;28;20233;-64
2023/04/15 13:53:12;;;;;;;1.03;0.40;;;;;;;;;;5077636;28;20572;-64
2023/04/15 13:55:41;;;;;;;0.77;0.70;;;;;;;;;;5091169;28;20247;-64
2023/04/15 13:58:11;;;;;;;0.60;0.60;;;;;;;;;;5084111;28;20608;-65
2023/04/15 14:00:39;;;;;;;0.70;0.50;;;;;;;;;;5093578;28;20261;-65
2023/04/15 14:03:07;;;;;;;1.40;0.60;;;;;;;;;;5098236;28;20205;-65
2023/04/15 14:05:35;;;;;;;0.50;0.50;;;;;;;;;;5098205;28;20239;-65
2023/04/15 14:08:03;;;;;;;0.53;0.53;;;;;;;;;;5098313;28;20208;-65
2023/04/15 14:10:32;;;;;;;1.13;0.73;;;;;;;;;;5097964;28;20225;-65
2023/04/15 14:13:01;;;;;;;0.97;0.60;;;;;;;;;;5097959;28;20229;-65
2023/04/15 14:15:30;;;;;;;0.33;0.33;;;;;;;;;;5097778;28;20237;-65
2023/04/15 14:17:58;;;;;;;0.53;0.53;;;;;;;;;;5098085;28;20244;-64
2023/04/15 14:20:26;;;;;;;2.53;0.70;;;;;;;;;;5097684;28;20316;-64
2023/04/15 14:22:54;;;;;;;0.70;0.70;;;;;;;;;;5097839;28;20664;-64
2023/04/15 14:25:22;;;;;;;0.70;0.70;;;;;;;;;;5097689;28;20728;-64
2023/04/15 14:28:00;;;;;;;0.73;0.50;;;;;;;;;;5097942;28;20665;-64
2023/04/15 14:30:29;;;;;;;0.60;0.60;;;;;;;;;;5097407;28;20312;-64
2023/04/15 14:32:57;;;;;;;0.70;0.70;;;;;;;;;;5097751;28;20288;-64
2023/04/15 14:35:26;;;;;;;0.70;0.70;;;;;;;;;;5106259;28;20197;-64
2023/04/15 14:37:54;;;;;;;0.80;0.80;;;;;;;;;;5097332;28;20234;-63
2023/04/15 14:40:22;;;;;;;3.70;1.50;;;;;;;;;;5098831;28;20704;-64
2023/04/15 14:42:50;;;;;;;1.90;0.90;;;;;;;;;;5085009;28;20217;-65
2023/04/15 14:45:18;;;;;;;1.00;0.90;;;;;;;;;;5093642;28;20279;-64
2023/04/15 14:47:47;;;;;;;0.90;0.90;;;;;;;;;;5097264;28;20241;-64
2023/04/15 14:50:15;;;;;;;0.67;0.67;;;;;;;;;;5097407;28;20278;-63
2023/04/15 14:52:43;;;;;;;1.93;0.83;;;;;;;;;;5089140;28;20206;-64
2023/04/15 14:55:12;;;;;;;2.63;0.80;;;;;;;;;;5097171;28;20224;-63